Fort Wingate, New Mexico
Current Conditions -  °F | °C
As of 12:53 PM on Thursday 23 Oct 2014 (Local Time) from KGUP Reporting Station
Clear Clear  
Wind Chill: 68°   Ceiling: Unl
Heat Index: 68°   Visibility: 10mi
Dew Point: 28°   Wind: 3mph
Humidity: 22%   Direction: NA
Pressure: 30.32"   Gusts: NA
Location:  35.47°N, 108.55°W
Report Text: KGUP 231853Z AUTO VRB03KT 10SM CLR 20/M02 A3032 RMK AO2 SLP178 T02001022
Loading
Personal Weather Stations






























Interactive Weather Map
Tropical Storm Tracking
New forecast layout! Learn more

10-Day Weather Forecast

Advertisements
Track Severe Weather on mobile